createdAt,value
2023-05-03T00:01:31.183Z,10.40
2023-05-03T00:03:58.197Z,10.00
2023-05-03T00:06:25.767Z,11.18
2023-05-03T00:08:53.046Z,10.77
2023-05-03T00:11:20.134Z,10.40
2023-05-03T00:13:47.182Z,10.13
2023-05-03T00:16:14.505Z,10.48
2023-05-03T00:18:41.588Z,10.63
2023-05-03T00:21:08.610Z,10.07
2023-05-03T00:23:35.682Z,10.35
2023-05-03T00:26:02.842Z,9.77
2023-05-03T00:28:29.855Z,8.57
2023-05-03T00:30:56.933Z,9.48
2023-05-03T00:33:23.951Z,9.05
2023-05-03T00:35:51.032Z,9.23
2023-05-03T00:38:18.135Z,9.63
2023-05-03T00:40:46.338Z,9.10
2023-05-03T00:43:13.884Z,10.30
2023-05-03T00:45:41.341Z,9.38
2023-05-03T00:48:08.616Z,9.80
2023-05-03T00:50:37.207Z,8.80
2023-05-03T00:53:04.582Z,8.95
2023-05-03T00:55:32.237Z,9.27
2023-05-03T00:57:59.391Z,9.13
2023-05-03T01:00:26.542Z,8.98
2023-05-03T01:02:54.527Z,9.05
2023-05-03T01:05:23.083Z,8.52
2023-05-03T01:08:09.430Z,8.25
2023-05-03T01:10:54.746Z,9.15
2023-05-03T01:13:39.723Z,9.15
2023-05-03T01:16:21.431Z,8.90
2023-05-03T01:18:51.167Z,9.07
2023-05-03T01:21:19.413Z,8.73
2023-05-03T01:23:52.596Z,8.93
2023-05-03T01:26:21.990Z,8.85
2023-05-03T01:28:49.192Z,9.73
2023-05-03T01:31:26.755Z,10.25
2023-05-03T01:34:18.471Z,9.85
2023-05-03T01:36:46.201Z,10.80
2023-05-03T01:39:21.351Z,9.77
2023-05-03T01:41:51.935Z,10.15
2023-05-03T01:44:21.805Z,10.35
2023-05-03T01:46:49.868Z,10.23
2023-05-03T01:49:16.976Z,10.95
2023-05-03T01:51:43.966Z,9.98
2023-05-03T01:54:11.547Z,9.98
2023-05-03T01:56:38.622Z,10.50
2023-05-03T01:59:05.896Z,10.00
2023-05-03T02:01:33.676Z,10.35
2023-05-03T02:04:01.045Z,9.65
2023-05-03T02:06:28.263Z,9.02
2023-05-03T02:08:59.868Z,9.55
2023-05-03T02:11:26.901Z,8.50
2023-05-03T02:13:53.969Z,8.95
2023-05-03T02:16:21.616Z,9.25
2023-05-03T02:18:48.776Z,8.45
2023-05-03T02:21:16.365Z,8.90
2023-05-03T02:23:43.445Z,8.48
2023-05-03T02:26:10.645Z,9.57
2023-05-03T02:28:38.812Z,8.35
2023-05-03T02:31:06.613Z,8.35
2023-05-03T02:33:33.891Z,8.88
2023-05-03T02:36:01.034Z,8.48
2023-05-03T02:38:28.182Z,8.20
2023-05-03T02:40:55.261Z,8.25
2023-05-03T02:43:23.198Z,7.75
2023-05-03T02:45:50.284Z,8.65
2023-05-03T02:48:17.992Z,7.70
2023-05-03T02:50:45.091Z,8.52
2023-05-03T02:53:12.632Z,8.18
2023-05-03T02:55:40.647Z,9.32
2023-05-03T02:58:07.810Z,8.85
2023-05-03T03:00:35.427Z,8.20
2023-05-03T03:03:02.844Z,9.40
2023-05-03T03:05:30.252Z,9.35
2023-05-03T03:07:57.232Z,8.68
2023-05-03T03:10:24.585Z,8.57
2023-05-03T03:12:51.612Z,8.32
2023-05-03T03:15:28.107Z,8.63
2023-05-03T03:17:58.086Z,8.60
2023-05-03T03:20:26.059Z,8.35
2023-05-03T03:22:54.660Z,8.57
2023-05-03T03:25:21.968Z,7.55
2023-05-03T03:27:49.745Z,8.48
2023-05-03T03:30:17.192Z,8.45
2023-05-03T03:32:56.984Z,7.72
2023-05-03T03:35:31.233Z,8.00
2023-05-03T03:37:58.671Z,8.57
2023-05-03T03:40:26.055Z,7.40
2023-05-03T03:42:55.427Z,7.05
2023-05-03T03:45:22.629Z,7.25
2023-05-03T03:47:51.428Z,7.45
2023-05-03T03:50:21.474Z,7.90
2023-05-03T03:52:48.525Z,7.88
2023-05-03T03:55:16.072Z,8.27
2023-05-03T03:57:46.019Z,7.90
2023-05-03T04:00:14.881Z,8.80
2023-05-03T04:02:49.171Z,7.93
2023-05-03T04:05:18.618Z,7.32
2023-05-03T04:07:46.610Z,8.20
2023-05-03T04:10:15.617Z,8.10
2023-05-03T04:12:43.470Z,7.47
2023-05-03T04:15:13.439Z,8.48
2023-05-03T04:17:41.379Z,8.20
2023-05-03T04:20:11.642Z,8.25
2023-05-03T04:22:41.324Z,8.60
2023-05-03T04:25:14.346Z,7.18
2023-05-03T04:27:45.282Z,8.07
2023-05-03T04:30:15.272Z,7.28
2023-05-03T04:32:44.602Z,7.47
2023-05-03T04:35:12.983Z,7.72
2023-05-03T04:37:44.438Z,7.45
2023-05-03T04:40:16.516Z,7.75
2023-05-03T04:42:48.472Z,7.10
2023-05-03T04:45:15.993Z,7.57
2023-05-03T04:47:43.332Z,6.35
2023-05-03T04:50:11.383Z,6.43
2023-05-03T04:52:41.766Z,6.57
2023-05-03T04:55:12.567Z,6.72
2023-05-03T04:57:40.427Z,6.85
2023-05-03T05:00:13.126Z,6.68
2023-05-03T05:02:45.472Z,6.25
2023-05-03T05:05:12.924Z,5.88
2023-05-03T05:07:39.991Z,5.72
2023-05-03T05:10:10.315Z,6.35
2023-05-03T05:12:38.102Z,6.15
2023-05-03T05:15:07.142Z,6.38
2023-05-03T05:17:35.117Z,6.68
2023-05-03T05:20:07.346Z,6.38
2023-05-03T05:22:34.997Z,5.97
2023-05-03T05:25:02.256Z,5.15
2023-05-03T05:27:30.861Z,5.50
2023-05-03T05:29:59.462Z,5.28
2023-05-03T05:32:27.216Z,5.63
2023-05-03T05:34:57.783Z,5.15
2023-05-03T05:37:27.782Z,5.57
2023-05-03T05:39:58.693Z,4.75
2023-05-03T05:42:28.797Z,5.13
2023-05-03T05:44:57.475Z,4.60
2023-05-03T05:47:25.076Z,4.75
2023-05-03T05:49:53.651Z,4.47
2023-05-03T05:52:20.686Z,3.75
2023-05-03T05:54:47.781Z,2.55
2023-05-03T05:57:14.932Z,3.55
2023-05-03T05:59:42.404Z,5.20
2023-05-03T06:02:16.906Z,2.80
2023-05-03T06:04:46.920Z,3.67
2023-05-03T06:07:15.117Z,2.83
2023-05-03T06:09:42.913Z,2.75
2023-05-03T06:12:11.209Z,3.63
2023-05-03T06:14:51.683Z,3.28
2023-05-03T06:17:29.389Z,2.92
2023-05-03T06:19:57.982Z,3.05
2023-05-03T06:22:25.570Z,2.25
2023-05-03T06:24:55.566Z,2.45
2023-05-03T06:27:22.704Z,2.30
2023-05-03T06:29:51.563Z,2.42
2023-05-03T06:32:19.494Z,2.53
2023-05-03T06:34:46.738Z,3.00
2023-05-03T06:37:14.274Z,2.30
2023-05-03T06:39:41.726Z,1.95
2023-05-03T06:42:08.956Z,2.00
2023-05-03T06:44:39.120Z,2.20
2023-05-03T06:47:06.192Z,2.10
2023-05-03T06:49:33.367Z,2.10
2023-05-03T06:52:00.479Z,2.28
2023-05-03T06:54:27.667Z,3.42
2023-05-03T06:56:54.678Z,1.80
2023-05-03T06:59:21.702Z,2.65
2023-05-03T07:01:48.868Z,2.08
2023-05-03T07:04:16.190Z,2.30
2023-05-03T07:06:55.452Z,2.00
2023-05-03T07:09:35.446Z,1.85
2023-05-03T07:12:09.267Z,1.27
2023-05-03T07:14:36.468Z,1.52
2023-05-03T07:17:03.501Z,1.73
2023-05-03T07:19:30.674Z,1.45
2023-05-03T07:21:57.697Z,1.33
2023-05-03T07:24:27.340Z,2.65
2023-05-03T07:26:54.640Z,1.50
2023-05-03T07:29:22.043Z,2.00
2023-05-03T07:31:50.829Z,2.13
2023-05-03T07:34:19.169Z,1.95
2023-05-03T07:36:46.116Z,2.50
2023-05-03T07:39:13.127Z,1.80
2023-05-03T07:41:40.205Z,1.92
2023-05-03T07:44:07.904Z,1.80
2023-05-03T07:46:35.519Z,1.80
2023-05-03T07:49:04.749Z,2.03
2023-05-03T07:51:39.220Z,2.10
2023-05-03T07:54:06.460Z,2.92
2023-05-03T07:56:46.626Z,1.20
2023-05-03T07:59:20.371Z,2.10
2023-05-03T08:01:47.362Z,2.25
2023-05-03T08:04:14.443Z,2.17
2023-05-03T08:06:42.844Z,3.20
2023-05-03T08:09:09.876Z,1.35
2023-05-03T08:11:37.023Z,2.55
2023-05-03T08:14:04.085Z,2.00
2023-05-03T08:16:31.181Z,2.05
2023-05-03T08:18:58.305Z,1.85
2023-05-03T08:21:26.302Z,1.70
2023-05-03T08:23:53.431Z,1.63
2023-05-03T08:26:22.364Z,1.95
2023-05-03T08:28:49.818Z,1.83
2023-05-03T08:31:17.732Z,1.52
2023-05-03T08:33:44.798Z,1.50
2023-05-03T08:36:11.833Z,2.50
2023-05-03T08:38:41.522Z,1.73
2023-05-03T08:41:30.819Z,2.67
2023-05-03T08:43:59.607Z,1.90
2023-05-03T08:46:28.638Z,2.17
2023-05-03T08:48:56.229Z,2.00
2023-05-03T08:51:25.135Z,1.83
2023-05-03T08:53:52.490Z,1.85
2023-05-03T08:56:40.111Z,2.03
2023-05-03T08:59:10.391Z,2.30
2023-05-03T09:01:41.407Z,2.10
2023-05-03T09:04:10.296Z,1.90
2023-05-03T09:06:38.697Z,2.05
2023-05-03T09:09:09.903Z,1.60
2023-05-03T09:11:38.914Z,1.95
2023-05-03T09:14:17.494Z,1.70
2023-05-03T09:16:46.807Z,1.63
2023-05-03T09:19:16.598Z,2.00
2023-05-03T09:21:45.556Z,1.65
2023-05-03T09:24:21.127Z,1.92
2023-05-03T09:26:50.660Z,1.50
2023-05-03T09:29:32.254Z,1.65
2023-05-03T09:32:05.748Z,1.90
2023-05-03T09:34:34.198Z,1.60
2023-05-03T09:37:01.534Z,1.60
2023-05-03T09:39:28.636Z,1.48
2023-05-03T09:41:56.724Z,1.27
2023-05-03T09:44:43.148Z,1.63
2023-05-03T09:47:11.182Z,1.63
2023-05-03T09:49:38.841Z,1.20
2023-05-03T09:52:07.372Z,1.30
2023-05-03T09:54:38.341Z,1.55
2023-05-03T09:57:07.600Z,1.73
2023-05-03T09:59:39.829Z,1.42
2023-05-03T10:02:08.468Z,1.75
2023-05-03T10:04:52.093Z,2.88
2023-05-03T10:07:22.586Z,1.67
2023-05-03T10:09:49.708Z,1.48
2023-05-03T10:12:18.093Z,1.98
2023-05-03T10:14:47.556Z,1.50
2023-05-03T10:17:42.914Z,1.40
2023-05-03T10:20:23.182Z,2.17
2023-05-03T10:23:05.560Z,1.50
2023-05-03T10:25:37.184Z,1.20
2023-05-03T10:28:06.124Z,1.58
2023-05-03T10:30:37.024Z,2.20
2023-05-03T10:33:10.158Z,1.67
2023-05-03T10:35:40.968Z,1.33
2023-05-03T10:38:21.048Z,1.67
2023-05-03T10:40:48.592Z,1.27
2023-05-03T10:43:33.439Z,1.38
2023-05-03T10:46:05.108Z,2.85
2023-05-03T10:48:33.657Z,1.02
2023-05-03T10:51:37.320Z,1.33
2023-05-03T10:54:04.923Z,1.52
2023-05-03T10:56:32.078Z,1.13
2023-05-03T10:58:59.273Z,1.42
2023-05-03T11:01:28.232Z,1.20
2023-05-03T11:04:01.070Z,1.42
2023-05-03T11:06:41.385Z,1.40
2023-05-03T11:09:12.159Z,1.10
2023-05-03T11:11:41.603Z,1.25
2023-05-03T11:14:10.187Z,1.38
2023-05-03T11:16:41.252Z,1.77
2023-05-03T11:19:08.552Z,1.40
2023-05-03T11:21:36.555Z,1.50
2023-05-03T11:24:03.682Z,1.73
2023-05-03T11:26:36.231Z,1.00
2023-05-03T11:29:03.786Z,1.05
2023-05-03T11:31:31.990Z,1.30
2023-05-03T11:33:59.427Z,1.77
2023-05-03T11:36:28.086Z,2.00
2023-05-03T11:38:55.219Z,1.60
2023-05-03T11:41:22.371Z,1.52
2023-05-03T11:44:00.470Z,1.35
2023-05-03T11:46:35.788Z,2.30
2023-05-03T11:49:03.570Z,1.48
2023-05-03T11:51:31.507Z,1.55
2023-05-03T11:54:13.036Z,1.92
2023-05-03T11:56:47.920Z,3.35
2023-05-03T11:59:15.017Z,1.45
2023-05-03T12:01:43.211Z,1.63
2023-05-03T12:04:13.030Z,1.30
2023-05-03T12:06:42.438Z,1.65
2023-05-03T12:09:15.649Z,1.58
2023-05-03T12:11:44.914Z,1.60
2023-05-03T12:14:12.839Z,1.83
2023-05-03T12:16:51.816Z,1.95
2023-05-03T12:19:28.054Z,1.67
2023-05-03T12:22:17.838Z,1.30
2023-05-03T12:24:49.321Z,1.13
2023-05-03T12:27:19.311Z,1.60
2023-05-03T12:29:47.557Z,1.70
2023-05-03T12:32:15.211Z,1.40
2023-05-03T12:34:43.349Z,1.60
2023-05-03T12:37:16.752Z,1.30
2023-05-03T12:39:47.367Z,1.73
2023-05-03T12:44:50.873Z,2.40
2023-05-03T12:47:26.954Z,1.98
2023-05-03T12:49:59.614Z,1.80
2023-05-03T12:54:57.196Z,1.77
2023-05-03T12:57:24.762Z,1.50
2023-05-03T13:00:02.248Z,1.38
2023-05-03T13:05:01.672Z,1.38
2023-05-03T13:07:31.047Z,1.83
2023-05-03T13:12:31.125Z,1.27
2023-05-03T13:14:58.277Z,1.60
2023-05-03T13:17:25.429Z,1.48
2023-05-03T13:19:53.328Z,1.45
2023-05-03T13:22:20.502Z,1.42
2023-05-03T13:24:48.195Z,1.00
2023-05-03T13:27:16.746Z,2.00
2023-05-03T13:29:46.152Z,1.10
2023-05-03T13:32:14.626Z,1.45
2023-05-03T13:34:41.603Z,1.48
2023-05-03T13:37:08.564Z,1.55
2023-05-03T13:39:35.609Z,1.90
2023-05-03T13:42:03.689Z,2.20
2023-05-03T13:44:30.794Z,2.08
2023-05-03T13:46:57.826Z,1.67
2023-05-03T13:49:25.693Z,1.92
2023-05-03T13:51:52.886Z,1.90
2023-05-03T13:54:19.996Z,2.05
2023-05-03T13:56:48.415Z,2.88
2023-05-03T13:59:16.484Z,1.67
2023-05-03T14:01:43.740Z,1.65
2023-05-03T14:04:11.105Z,1.13
2023-05-03T14:06:40.241Z,1.73
2023-05-03T14:09:08.162Z,1.67
2023-05-03T14:11:35.598Z,2.72
2023-05-03T14:14:03.368Z,1.70
2023-05-03T14:16:40.838Z,2.33
2023-05-03T14:19:10.801Z,1.52
2023-05-03T14:21:38.529Z,2.30
2023-05-03T14:24:06.842Z,1.65
2023-05-03T14:26:37.206Z,2.40
2023-05-03T14:29:05.899Z,2.33
2023-05-03T14:31:34.395Z,1.92
2023-05-03T14:34:01.527Z,1.80
2023-05-03T14:36:36.127Z,1.70
2023-05-03T14:39:04.452Z,1.92
2023-05-03T14:41:33.543Z,1.98
2023-05-03T14:44:02.232Z,2.30
2023-05-03T14:46:29.397Z,2.13
2023-05-03T14:48:56.384Z,1.58
2023-05-03T14:51:24.095Z,2.70
2023-05-03T14:53:51.498Z,2.42
2023-05-03T14:56:18.559Z,2.70
2023-05-03T14:58:45.627Z,1.75
2023-05-03T15:01:22.332Z,2.30
2023-05-03T15:03:50.018Z,1.77
2023-05-03T15:06:24.566Z,2.40
2023-05-03T15:08:52.469Z,3.03
2023-05-03T15:11:19.697Z,1.92
2023-05-03T15:13:47.982Z,2.33
2023-05-03T15:16:15.180Z,2.55
2023-05-03T15:18:44.076Z,2.53
2023-05-03T15:21:12.833Z,2.30
2023-05-03T15:23:39.899Z,3.00
2023-05-03T15:26:07.223Z,2.75
2023-05-03T15:28:34.224Z,2.45
2023-05-03T15:31:01.996Z,2.60
2023-05-03T15:33:29.121Z,2.20
2023-05-03T15:35:56.584Z,2.58
2023-05-03T15:38:23.720Z,2.92
2023-05-03T15:40:50.814Z,2.95
2023-05-03T15:43:18.017Z,2.95
2023-05-03T15:45:45.012Z,2.47
2023-05-03T15:48:12.081Z,2.90
2023-05-03T15:50:39.059Z,2.78
2023-05-03T15:53:06.051Z,2.00
2023-05-03T15:55:33.444Z,2.53
2023-05-03T15:58:00.411Z,2.78
2023-05-03T16:00:27.879Z,2.28
2023-05-03T16:02:55.042Z,2.88
2023-05-03T16:05:23.206Z,3.33
2023-05-03T16:07:50.974Z,2.95
2023-05-03T16:10:18.335Z,2.88
2023-05-03T16:12:45.391Z,2.75
2023-05-03T16:15:12.676Z,2.88
2023-05-03T16:17:39.741Z,2.72
2023-05-03T16:20:10.893Z,3.00
2023-05-03T16:22:38.141Z,3.10
2023-05-03T16:25:10.757Z,2.95
2023-05-03T16:27:40.207Z,3.33
2023-05-03T16:30:08.938Z,3.13
2023-05-03T16:32:37.066Z,2.95
2023-05-03T16:35:04.635Z,2.88
2023-05-03T16:37:37.268Z,3.28
2023-05-03T16:40:13.912Z,2.92
2023-05-03T16:42:41.678Z,2.95
2023-05-03T16:45:10.853Z,3.78
2023-05-03T16:47:38.619Z,4.70
2023-05-03T16:50:09.610Z,2.90
2023-05-03T16:52:40.530Z,2.92
2023-05-03T16:55:09.425Z,3.80
2023-05-03T16:57:42.734Z,3.35
2023-05-03T17:00:11.133Z,3.25
2023-05-03T17:02:39.980Z,3.83
2023-05-03T17:05:12.778Z,3.20
2023-05-03T17:07:41.966Z,2.75
2023-05-03T17:10:09.612Z,3.20
2023-05-03T17:12:37.132Z,3.25
2023-05-03T17:15:04.665Z,3.15
2023-05-03T17:17:32.783Z,3.88
2023-05-03T17:19:59.843Z,2.92
2023-05-03T17:22:26.933Z,3.63
2023-05-03T17:24:55.333Z,2.75
2023-05-03T17:27:24.360Z,2.75
2023-05-03T17:29:51.767Z,2.78
2023-05-03T17:32:19.115Z,3.45
2023-05-03T17:34:46.353Z,2.58
2023-05-03T17:37:13.376Z,3.85
2023-05-03T17:39:40.425Z,3.40
2023-05-03T17:42:08.574Z,2.92
2023-05-03T17:44:35.699Z,2.72
2023-05-03T17:47:04.654Z,2.88
2023-05-03T17:49:34.527Z,2.70
2023-05-03T17:52:01.542Z,3.25
2023-05-03T17:54:29.514Z,2.75
2023-05-03T17:56:57.140Z,2.30
2023-05-03T17:59:24.147Z,2.50
2023-05-03T18:01:51.127Z,2.50
2023-05-03T18:04:18.153Z,3.33
2023-05-03T18:06:45.743Z,2.45
2023-05-03T18:09:13.351Z,3.20
2023-05-03T18:11:41.498Z,2.85
2023-05-03T18:14:08.545Z,2.90
2023-05-03T18:16:36.881Z,3.35
2023-05-03T18:19:04.431Z,3.28
2023-05-03T18:21:31.491Z,3.00
2023-05-03T18:23:58.592Z,5.43
2023-05-03T18:26:25.553Z,2.33
2023-05-03T18:28:53.712Z,2.20
2023-05-03T18:31:21.639Z,2.47
2023-05-03T18:33:49.118Z,2.33
2023-05-03T18:36:17.648Z,2.05
2023-05-03T18:38:47.048Z,2.63
2023-05-03T18:41:15.202Z,2.60
2023-05-03T18:43:43.639Z,2.83
2023-05-03T18:46:11.515Z,2.63
2023-05-03T18:48:38.553Z,4.05
2023-05-03T18:51:05.836Z,2.80
2023-05-03T18:53:34.486Z,2.80
2023-05-03T18:56:04.959Z,3.05
2023-05-03T18:58:32.528Z,2.97
2023-05-03T19:01:00.527Z,3.88
2023-05-03T19:03:31.622Z,3.05
2023-05-03T19:06:04.256Z,3.20
2023-05-03T19:08:31.992Z,3.45
2023-05-03T19:11:08.272Z,3.03
2023-05-03T19:13:36.129Z,3.50
2023-05-03T19:16:04.095Z,2.95
2023-05-03T19:18:32.065Z,3.08
2023-05-03T19:20:59.142Z,3.72
2023-05-03T19:23:26.225Z,2.78
2023-05-03T19:25:53.501Z,3.63
2023-05-03T19:28:20.683Z,3.30
2023-05-03T19:30:51.623Z,2.95
2023-05-03T19:33:22.098Z,2.60
2023-05-03T19:35:49.234Z,3.38
2023-05-03T19:38:16.150Z,3.00
2023-05-03T19:40:58.674Z,3.42
2023-05-03T19:43:25.926Z,2.63
2023-05-03T19:45:53.151Z,3.00
2023-05-03T19:48:20.182Z,3.97
2023-05-03T19:50:47.744Z,2.70
2023-05-03T19:53:14.824Z,3.13
2023-05-03T19:55:41.960Z,2.72
2023-05-03T19:58:08.957Z,3.10
2023-05-03T20:00:35.953Z,3.50
2023-05-03T20:03:02.986Z,3.20
2023-05-03T20:05:30.249Z,5.03
2023-05-03T20:07:57.208Z,3.08
2023-05-03T20:10:24.193Z,3.58
2023-05-03T20:12:51.199Z,3.22
2023-05-03T20:15:18.245Z,3.45
2023-05-03T20:17:45.232Z,2.83
2023-05-03T20:20:13.260Z,3.75
2023-05-03T20:22:40.891Z,3.22
2023-05-03T20:25:08.500Z,3.35
2023-05-03T20:27:35.498Z,3.22
2023-05-03T20:30:06.005Z,3.30
2023-05-03T20:32:36.371Z,3.25
2023-05-03T20:35:13.561Z,2.78
2023-05-03T20:37:40.581Z,3.40
2023-05-03T20:40:09.465Z,2.60
2023-05-03T20:42:36.693Z,3.53
2023-05-03T20:45:04.042Z,2.90
2023-05-03T20:47:31.172Z,2.90
2023-05-03T20:49:58.277Z,3.17
2023-05-03T20:52:25.424Z,2.90
2023-05-03T20:54:52.519Z,4.13
2023-05-03T20:57:19.576Z,3.15
2023-05-03T20:59:46.700Z,3.08
2023-05-03T21:02:13.726Z,3.40
2023-05-03T21:04:41.091Z,3.53
2023-05-03T21:07:08.068Z,3.85
2023-05-03T21:09:35.144Z,3.05
2023-05-03T21:12:02.368Z,2.92
2023-05-03T21:14:29.773Z,3.47
2023-05-03T21:16:56.843Z,3.15
2023-05-03T21:19:23.847Z,4.22
2023-05-03T21:21:51.028Z,2.85
2023-05-03T21:24:18.061Z,2.80
2023-05-03T21:26:45.085Z,3.38
2023-05-03T21:29:12.288Z,3.28
2023-05-03T21:31:40.311Z,3.13
2023-05-03T21:34:07.500Z,3.20
2023-05-03T21:36:34.496Z,3.25
2023-05-03T21:39:01.528Z,2.90
2023-05-03T21:41:28.578Z,3.08
2023-05-03T21:43:55.535Z,3.50
2023-05-03T21:46:22.857Z,4.00
2023-05-03T21:48:50.030Z,3.38
2023-05-03T21:51:21.953Z,3.10
2023-05-03T21:53:49.914Z,3.40
2023-05-03T21:56:16.998Z,3.20
2023-05-03T21:58:47.119Z,2.78
2023-05-03T22:01:16.849Z,3.13
2023-05-03T22:03:43.972Z,3.10
2023-05-03T22:06:11.131Z,3.20
2023-05-03T22:08:38.601Z,3.17
2023-05-03T22:11:07.193Z,3.53
2023-05-03T22:13:39.404Z,2.53
2023-05-03T22:16:12.455Z,3.75
2023-05-03T22:18:39.668Z,3.00
2023-05-03T22:21:07.429Z,4.07
2023-05-03T22:23:34.549Z,3.78
2023-05-03T22:26:01.561Z,3.45
2023-05-03T22:28:28.870Z,3.55
2023-05-03T22:30:56.719Z,3.70
2023-05-03T22:33:23.741Z,4.00
2023-05-03T22:35:50.798Z,4.18
2023-05-03T22:38:17.919Z,3.70
2023-05-03T22:40:45.038Z,4.28
2023-05-03T22:43:12.218Z,3.30
2023-05-03T22:45:39.486Z,3.92
2023-05-03T22:48:06.944Z,4.32
2023-05-03T22:50:33.924Z,3.65
2023-05-03T22:53:00.862Z,3.20
2023-05-03T22:55:28.272Z,3.25
2023-05-03T22:57:55.353Z,3.38
2023-05-03T23:00:22.656Z,3.83
2023-05-03T23:02:49.886Z,3.03
2023-05-03T23:05:17.146Z,3.50
2023-05-03T23:07:44.193Z,3.47
2023-05-03T23:10:11.524Z,3.70
2023-05-03T23:12:39.458Z,4.35
2023-05-03T23:15:07.279Z,3.60
2023-05-03T23:17:34.572Z,3.47
2023-05-03T23:20:01.667Z,3.75
2023-05-03T23:22:28.774Z,3.70
2023-05-03T23:24:55.766Z,3.65
2023-05-03T23:29:51.023Z,3.60
2023-05-03T23:32:18.445Z,3.75
2023-05-03T23:34:45.836Z,3.80
2023-05-03T23:37:12.792Z,4.40
2023-05-03T23:39:46.986Z,4.00
2023-05-03T23:42:14.228Z,4.03
2023-05-03T23:44:53.816Z,5.30
2023-05-03T23:47:21.955Z,4.30
2023-05-03T23:49:49.037Z,4.47
2023-05-03T23:52:19.172Z,5.07
2023-05-03T23:54:46.600Z,5.03
2023-05-03T23:57:13.638Z,4.90
2023-05-03T23:59:40.617Z,4.85
